Time;durP1;ratioP1;P1;durP2;ratioP2;P2;SDS_P1;SDS_P2;PMS_P1;PMS_P2;Temp;Humidity;BMP_temperature;BMP_pressure;BME280_temperature;BME280_humidity;BME280_pressure;Samples;Min_cycle;Max_cycle;Signal;HPM_P1;HPM_P2
2021/10/06 00:06:24;;;;;;;1.95;1.13;;;;;;;;;;21248143;27;20071;-58
2021/10/06 00:16:27;;;;;;;2.60;1.65;;;;;;;;;;21247620;28;20054;-58
2021/10/06 00:26:29;;;;;;;2.03;1.10;;;;;;;;;;21248749;28;20040;-60
2021/10/06 00:36:31;;;;;;;2.33;1.27;;;;;;;;;;21246923;28;20120;-59
2021/10/06 00:46:34;;;;;;;4.68;1.10;;;;;;;;;;21246527;28;20054;-63
2021/10/06 00:56:36;;;;;;;1.85;1.00;;;;;;;;;;21251561;27;20051;-53
2021/10/06 01:06:39;;;;;;;1.63;1.10;;;;;;;;;;21262031;27;20039;-59
2021/10/06 01:16:43;;;;;;;5.10;4.00;;;;;;;;;;21260952;27;20043;-54
2021/10/06 01:26:45;;;;;;;3.33;1.70;;;;;;;;;;21260283;27;20039;-59
2021/10/06 01:36:49;;;;;;;1.83;1.30;;;;;;;;;;21259506;27;20051;-53
2021/10/06 01:46:55;;;;;;;3.85;1.10;;;;;;;;;;21259414;27;20399;-56
2021/10/06 01:56:59;;;;;;;;;;;;;;;;;;21257974;27;20051;-53
2021/10/06 02:07:02;;;;;;;2.25;1.48;;;;;;;;;;21256698;27;19987;-55
2021/10/06 02:17:05;;;;;;;2.60;1.40;;;;;;;;;;21256264;27;20051;-53
2021/10/06 02:27:09;;;;;;;2.23;1.10;;;;;;;;;;21255904;27;20047;-54
2021/10/06 02:37:11;;;;;;;1.90;1.40;;;;;;;;;;21254472;27;20051;-55
2021/10/06 02:47:14;;;;;;;2.40;1.23;;;;;;;;;;21253975;27;20112;-53
2021/10/06 02:57:18;;;;;;;2.67;1.55;;;;;;;;;;21252791;27;20163;-56
2021/10/06 03:07:22;;;;;;;3.35;1.30;;;;;;;;;;21251574;27;20054;-56
2021/10/06 03:17:25;;;;;;;3.20;1.70;;;;;;;;;;21232047;27;20046;-54
2021/10/06 03:27:28;;;;;;;2.50;1.33;;;;;;;;;;21250180;27;20073;-54
2021/10/06 03:37:32;;;;;;;2.15;1.40;;;;;;;;;;21250020;27;20047;-54
2021/10/06 03:47:35;;;;;;;2.47;1.60;;;;;;;;;;21249031;27;20051;-54
2021/10/06 03:57:37;;;;;;;2.47;1.42;;;;;;;;;;21248792;27;20495;-52
2021/10/06 04:07:40;;;;;;;4.97;2.03;;;;;;;;;;21246417;27;20054;-54
2021/10/06 04:17:44;;;;;;;3.90;1.53;;;;;;;;;;21247533;28;20091;-55
2021/10/06 04:27:47;;;;;;;4.40;2.10;;;;;;;;;;21246898;27;20089;-55
2021/10/06 04:37:50;;;;;;;5.65;2.70;;;;;;;;;;21263412;27;20087;-54
2021/10/06 04:47:58;;;;;;;5.70;2.20;;;;;;;;;;21262918;27;20066;-54
2021/10/06 04:58:00;;;;;;;8.65;5.00;;;;;;;;;;21262220;27;20055;-55
2021/10/06 05:08:03;;;;;;;4.28;2.25;;;;;;;;;;21261031;27;20408;-58
2021/10/06 05:18:06;;;;;;;3.20;1.80;;;;;;;;;;21260960;27;20051;-54
2021/10/06 05:28:09;;;;;;;3.20;1.90;;;;;;;;;;21261046;27;20407;-55
2021/10/06 05:38:12;;;;;;;4.20;2.28;;;;;;;;;;21259845;27;20107;-54
2021/10/06 05:48:16;;;;;;;4.65;1.98;;;;;;;;;;21257714;27;20074;-56
2021/10/06 05:58:19;;;;;;;5.10;1.48;;;;;;;;;;21257460;27;20047;-60
2021/10/06 06:08:21;;;;;;;3.08;2.20;;;;;;;;;;21256321;27;20050;-58
2021/10/06 06:18:24;;;;;;;2.17;1.10;;;;;;;;;;21256063;27;20057;-54
2021/10/06 06:28:27;;;;;;;4.63;1.95;;;;;;;;;;21255126;27;20081;-54
2021/10/06 06:38:29;;;;;;;6.00;2.72;;;;;;;;;;21254024;27;20047;-54
2021/10/06 06:48:32;;;;;;;9.80;3.72;;;;;;;;;;21253502;27;20130;-55
2021/10/06 06:58:34;;;;;;;3.08;2.17;;;;;;;;;;21252248;27;20047;-54
2021/10/06 07:08:37;;;;;;;9.82;2.60;;;;;;;;;;21252062;27;20039;-54
2021/10/06 07:18:41;;;;;;;6.23;1.97;;;;;;;;;;21251352;27;20078;-56
2021/10/06 07:28:44;;;;;;;4.93;1.90;;;;;;;;;;21251710;27;20042;-53
2021/10/06 07:38:48;;;;;;;6.67;2.43;;;;;;;;;;21249966;27;20051;-57
2021/10/06 07:48:50;;;;;;;4.35;3.30;;;;;;;;;;21230989;27;20073;-54
2021/10/06 07:58:53;;;;;;;8.77;3.58;;;;;;;;;;21248306;27;20605;-58
2021/10/06 08:08:56;;;;;;;8.45;3.92;;;;;;;;;;21248030;27;20429;-57
2021/10/06 08:19:00;;;;;;;;;;;;;;;;;;21248753;28;20390;-57
2021/10/06 08:29:03;;;;;;;7.20;3.20;;;;;;;;;;21247728;28;19970;-57
2021/10/06 08:39:08;;;;;;;4.53;2.42;;;;;;;;;;21246768;28;20055;-56
2021/10/06 08:49:11;;;;;;;4.22;1.60;;;;;;;;;;21245324;28;20100;-54
2021/10/06 08:59:14;;;;;;;4.90;2.20;;;;;;;;;;21258795;27;20057;-60
2021/10/06 09:09:17;;;;;;;4.85;2.70;;;;;;;;;;21296254;27;20039;-58
2021/10/06 09:19:37;;;;;;;5.67;2.50;;;;;;;;;;21277056;27;20104;-66
2021/10/06 09:29:50;;;;;;;13.27;2.85;;;;;;;;;;21263175;27;20047;-64
2021/10/06 09:39:55;;;;;;;10.43;2.73;;;;;;;;;;21341759;27;20133;-58
2021/10/06 09:50:00;;;;;;;11.70;3.20;;;;;;;;;;21341673;27;20110;-55
2021/10/06 10:00:08;;;;;;;5.53;2.00;;;;;;;;;;21335790;27;20051;-63
2021/10/06 10:10:12;;;;;;;4.63;1.40;;;;;;;;;;21343074;27;20042;-62
2021/10/06 10:20:16;;;;;;;4.70;1.50;;;;;;;;;;21273395;27;20047;-61
2021/10/06 10:30:29;;;;;;;4.10;1.83;;;;;;;;;;21257321;27;20039;-60
2021/10/06 10:40:54;;;;;;;4.25;2.17;;;;;;;;;;21300852;27;20401;-56
2021/10/06 10:50:58;;;;;;;2.78;1.48;;;;;;;;;;21299617;27;20049;-56
2021/10/06 11:01:02;;;;;;;7.40;1.83;;;;;;;;;;21293893;27;20254;-57
2021/10/06 11:11:14;;;;;;;6.97;2.00;;;;;;;;;;21287384;27;20076;-59
2021/10/06 11:21:30;;;;;;;5.07;2.00;;;;;;;;;;21250639;27;20100;-57
2021/10/06 11:31:34;;;;;;;3.03;1.30;;;;;;;;;;21264565;27;20043;-59
2021/10/06 11:41:42;;;;;;;2.92;1.40;;;;;;;;;;21289616;27;20045;-60
2021/10/06 11:51:47;;;;;;;2.00;1.30;;;;;;;;;;21290166;27;20118;-58
2021/10/06 12:02:00;;;;;;;3.50;2.25;;;;;;;;;;21279384;27;20481;-62
2021/10/06 12:12:08;;;;;;;5.10;1.50;;;;;;;;;;21314563;27;20053;-65
2021/10/06 12:22:15;;;;;;;3.30;1.42;;;;;;;;;;21333630;27;20133;-64
2021/10/06 12:32:18;;;;;;;4.13;1.80;;;;;;;;;;21334770;27;20050;-64
2021/10/06 12:42:22;;;;;;;4.70;1.45;;;;;;;;;;21332256;27;20354;-64
2021/10/06 12:52:25;;;;;;;;;;;;;;;;;;21338607;27;20064;-64
2021/10/06 13:02:31;;;;;;;4.80;1.90;;;;;;;;;;21348236;27;19930;-65
2021/10/06 13:12:38;;;;;;;5.22;2.30;;;;;;;;;;21347123;27;20086;-65
2021/10/06 13:22:41;;;;;;;4.20;1.75;;;;;;;;;;21346927;27;20054;-65
2021/10/06 13:32:46;;;;;;;3.75;1.60;;;;;;;;;;21345782;27;20118;-64
2021/10/06 13:42:50;;;;;;;3.00;1.38;;;;;;;;;;21345595;27;20043;-64
2021/10/06 13:52:59;;;;;;;2.30;1.35;;;;;;;;;;21344325;27;20047;-63
2021/10/06 14:03:02;;;;;;;2.30;1.10;;;;;;;;;;21342759;27;20498;-63
2021/10/06 14:13:05;;;;;;;3.25;1.55;;;;;;;;;;21343631;27;20091;-64
2021/10/06 14:23:08;;;;;;;2.72;1.05;;;;;;;;;;21342226;27;20046;-63
2021/10/06 14:33:11;;;;;;;1.63;0.83;;;;;;;;;;21340782;27;20049;-63
2021/10/06 14:43:16;;;;;;;3.20;1.30;;;;;;;;;;21340115;27;20621;-64
2021/10/06 14:53:18;;;;;;;2.22;1.13;;;;;;;;;;21339121;27;20133;-60
2021/10/06 15:03:21;;;;;;;2.47;1.53;;;;;;;;;;21338363;27;20066;-63
2021/10/06 15:13:24;;;;;;;6.30;1.55;;;;;;;;;;21337251;27;20080;-66
2021/10/06 15:23:26;;;;;;;2.55;1.05;;;;;;;;;;21338399;27;20042;-64
2021/10/06 15:33:28;;;;;;;2.87;0.80;;;;;;;;;;21320745;27;20042;-62
2021/10/06 15:43:31;;;;;;;3.60;1.80;;;;;;;;;;21306121;27;20486;-61
2021/10/06 15:53:33;;;;;;;;;;;;;;;;;;21307382;27;20047;-59
2021/10/06 16:03:36;;;;;;;2.15;0.95;;;;;;;;;;21302592;27;19924;-57
2021/10/06 16:13:39;;;;;;;;;;;;;;;;;;21327103;27;20078;-55
2021/10/06 16:23:42;;;;;;;4.25;1.58;;;;;;;;;;21292785;27;20300;-54
2021/10/06 16:33:44;;;;;;;;;;;;;;;;;;21317368;27;20401;-50
2021/10/06 16:43:48;;;;;;;3.80;1.27;;;;;;;;;;21264597;27;20008;-53
2021/10/06 16:53:50;;;;;;;8.73;2.58;;;;;;;;;;21266979;27;20047;-55
2021/10/06 17:03:53;;;;;;;7.28;2.20;;;;;;;;;;21262829;27;20047;-55
2021/10/06 17:13:55;;;;;;;5.97;2.20;;;;;;;;;;21325983;27;20080;-54
2021/10/06 17:23:58;;;;;;;5.90;1.80;;;;;;;;;;21276345;27;20104;-56
2021/10/06 17:34:01;;;;;;;3.40;1.83;;;;;;;;;;21258984;27;20406;-55
2021/10/06 17:44:03;;;;;;;6.37;2.17;;;;;;;;;;21256126;27;20043;-55
2021/10/06 17:54:06;;;;;;;6.23;2.87;;;;;;;;;;21256166;27;20323;-56
2021/10/06 18:04:08;;;;;;;8.20;2.80;;;;;;;;;;21255080;27;20065;-59
2021/10/06 18:14:11;;;;;;;5.90;2.20;;;;;;;;;;21333647;27;20318;-58
2021/10/06 18:24:13;;;;;;;9.20;3.87;;;;;;;;;;21263104;27;20079;-58
2021/10/06 18:34:20;;;;;;;12.40;6.60;;;;;;;;;;21254167;27;20043;-59
2021/10/06 18:44:25;;;;;;;9.93;6.13;;;;;;;;;;21252777;27;20051;-58
2021/10/06 18:54:30;;;;;;;10.70;7.57;;;;;;;;;;21250952;27;20092;-58
2021/10/06 19:04:32;;;;;;;11.90;5.60;;;;;;;;;;21250996;27;20068;-58
2021/10/06 19:14:37;;;;;;;10.80;6.70;;;;;;;;;;21249869;27;20066;-57
2021/10/06 19:24:40;;;;;;;9.55;5.28;;;;;;;;;;21251395;27;20047;-56
2021/10/06 19:34:42;;;;;;;14.93;6.47;;;;;;;;;;21253977;27;20043;-59
2021/10/06 19:44:45;;;;;;;19.48;8.57;;;;;;;;;;21249822;27;20486;-57
2021/10/06 19:54:48;;;;;;;11.90;6.85;;;;;;;;;;21247956;27;20102;-64
2021/10/06 20:04:51;;;;;;;7.00;4.47;;;;;;;;;;21246479;27;20039;-66
2021/10/06 20:14:53;;;;;;;7.20;4.40;;;;;;;;;;21228948;27;20536;-68
2021/10/06 20:24:58;;;;;;;9.02;3.35;;;;;;;;;;21245737;28;20047;-58
2021/10/06 20:45:07;;;;;;;7.03;3.38;;;;;;;;;;21245158;28;20047;-56
2021/10/06 20:55:17;;;;;;;6.95;3.83;;;;;;;;;;21249629;28;20433;-58
2021/10/06 21:05:19;;;;;;;10.38;4.57;;;;;;;;;;21244275;28;20047;-59
2021/10/06 21:15:22;;;;;;;12.20;6.00;;;;;;;;;;21252553;27;20065;-59
2021/10/06 21:25:24;;;;;;;11.65;5.70;;;;;;;;;;21259207;27;20411;-56
2021/10/06 21:35:27;;;;;;;9.23;5.50;;;;;;;;;;21258126;27;20043;-57
2021/10/06 21:45:29;;;;;;;7.03;4.30;;;;;;;;;;21257273;27;20444;-57
2021/10/06 21:55:32;;;;;;;8.80;5.15;;;;;;;;;;21256914;27;20085;-56
2021/10/06 22:05:35;;;;;;;13.10;5.73;;;;;;;;;;21258486;27;20051;-56
2021/10/06 22:15:37;;;;;;;6.65;3.60;;;;;;;;;;21257557;27;20049;-58
2021/10/06 22:25:42;;;;;;;6.53;2.88;;;;;;;;;;21255518;27;20055;-56
2021/10/06 22:35:44;;;;;;;5.40;2.45;;;;;;;;;;21255629;27;20368;-58
2021/10/06 22:45:47;;;;;;;6.22;2.90;;;;;;;;;;21254949;27;20047;-58
2021/10/06 22:55:49;;;;;;;8.15;3.80;;;;;;;;;;21253972;27;20403;-56
2021/10/06 23:05:51;;;;;;;7.07;3.40;;;;;;;;;;21253573;27;20054;-57
2021/10/06 23:15:54;;;;;;;4.20;2.70;;;;;;;;;;21253715;27;20452;-66
2021/10/06 23:25:56;;;;;;;3.45;2.33;;;;;;;;;;21252154;27;20054;-56
2021/10/06 23:35:58;;;;;;;5.32;2.67;;;;;;;;;;21251051;27;20097;-56
2021/10/06 23:46:01;;;;;;;6.20;2.25;;;;;;;;;;21250596;27;20398;-57
2021/10/06 23:56:03;;;;;;;4.25;2.03;;;;;;;;;;21249437;27;20063;-57
